Coimbatore Airport
VOCB : now visible

Airfield :











YOU CAN JOIN US ON...

 
LOGIN :

Register | Disclaimer

   EN    FR    IT 

 









Legend :    VFR   Marginal VFR   IFR   Intensive IFR   Very Intensive IFR
Visi :
Ceiling :
>= 8 km
>= 3000ft
5 to 8 km
1000 to 3000 ft
1500m to 5 km
500 to 1000 ft
800 to 1500m
200 to 500 ft
< 800m
< 200 ft
Symbols :   Thunderstorms  Fog  Heavy snow  Heavy precipitations  Wind > 20 kt






- Airport Elevation : 1324 ft
- IATA code : CJB


VOCB - Coimbatore

CURRENT METAR :
  • 051400Z 21010KT 5000 BR FEW012 SCT080 25/22 Q1011 NOSIG

EXPIRED METARs :
  • 051330Z 23012KT 5000 BR SCT012 FEW020CB BKN080 26/22 Q1010 NOSIG
  • 051300Z 21010KT 5000 BR SCT012 FEW020CB BKN080 26/22 Q1010 NOSIG
  • 051230Z 19011KT 5000 HZ SCT012 FEW020CB BKN080 27/22 Q1009 NOSIG
  • 051200Z 18014KT 6000 SCT012 FEW020CB BKN080 27/21 Q1009 BECMG 5000 HZ
  • 051130Z 22008G18KT 6000 SCT012 FEW020CB SCT080 30/19 Q1008 NOSIG

TAF TAF VOCB
Valid from the 05 at 12:00 until the 06 at 18:00 UTC


051100Z 0512/0618 20010G20KT 5000 BR SCT015 BKN080
TEMPO 0512/0518 4000 -TSRA/RA SCT012 FEW020TCU/CB BKN080
BECMG 0518/0519 4000 -DZ/BR
BECMG 0605/0606 20010G20KT 6000
TEMPO 0609/0615 SCT012 FEW020TCU/CB BKN080
VOMF FIR / Asia



MET'MAP, your aeronautical weather chart ! - Copyright ORBIFLY December 2007 - Disclaimer

ORBIFLY MET'MAP TEAM :

Programming & Development : Alexandra Zaïnal
Concept & original design : Baudouin d'Aumeries
Assistance for programming : Marc-Olivier Méhu
Technical & hardware support : Manuel Goepfert

Contact : metmap@orbifly.com




SOURCES & CREDITS :

   NOAA       Earth
Advisory